createdAt,value
2024-01-17T00:00:47.690Z,12.80
2024-01-17T00:03:14.721Z,14.13
2024-01-17T00:05:41.718Z,11.77
2024-01-17T00:08:10.506Z,19.77
2024-01-17T00:10:37.505Z,15.07
2024-01-17T00:13:04.683Z,12.07
2024-01-17T00:15:32.935Z,12.67
2024-01-17T00:17:59.999Z,10.40
2024-01-17T00:20:26.967Z,12.10
2024-01-17T00:22:55.322Z,12.90
2024-01-17T00:25:22.315Z,11.90
2024-01-17T00:27:50.559Z,10.60
2024-01-17T00:30:18.089Z,10.93
2024-01-17T00:32:47.325Z,12.13
2024-01-17T00:35:14.722Z,10.87
2024-01-17T00:37:41.675Z,13.40
2024-01-17T00:40:10.194Z,10.03
2024-01-17T00:42:37.184Z,9.50
2024-01-17T00:45:04.976Z,10.60
2024-01-17T00:47:32.161Z,12.30
2024-01-17T00:50:00.592Z,10.50
2024-01-17T00:52:27.546Z,13.53
2024-01-17T00:54:54.497Z,11.67
2024-01-17T00:57:21.757Z,11.73
2024-01-17T00:59:48.737Z,12.90
2024-01-17T01:02:15.739Z,12.27
2024-01-17T01:04:42.595Z,11.90
2024-01-17T01:07:11.825Z,12.63
2024-01-17T01:09:38.867Z,11.37
2024-01-17T01:12:06.439Z,11.93
2024-01-17T01:14:33.585Z,12.93
2024-01-17T01:17:00.560Z,11.43
2024-01-17T01:19:27.463Z,13.10
2024-01-17T01:21:54.382Z,13.73
2024-01-17T01:24:23.358Z,11.83
2024-01-17T01:26:50.337Z,14.97
2024-01-17T01:29:17.322Z,11.77
2024-01-17T01:31:44.324Z,13.20
2024-01-17T01:34:11.510Z,12.13
2024-01-17T01:36:38.948Z,12.87
2024-01-17T01:39:06.002Z,11.83
2024-01-17T01:41:34.436Z,13.33
2024-01-17T01:44:01.448Z,11.73
2024-01-17T01:46:30.417Z,12.60
2024-01-17T01:48:58.517Z,12.83
2024-01-17T01:51:26.734Z,12.07
2024-01-17T01:53:58.097Z,12.80
2024-01-17T01:56:28.027Z,12.33
2024-01-17T01:58:57.046Z,15.63
2024-01-17T02:01:26.002Z,11.73
2024-01-17T02:03:55.048Z,12.83
2024-01-17T02:06:23.714Z,12.37
2024-01-17T02:08:53.849Z,12.87
2024-01-17T02:11:21.010Z,13.90
2024-01-17T02:13:48.211Z,11.43
2024-01-17T02:16:16.686Z,12.57
2024-01-17T02:18:44.611Z,11.60
2024-01-17T02:21:13.057Z,12.97
2024-01-17T02:23:39.987Z,11.57
2024-01-17T02:26:08.251Z,11.03
2024-01-17T02:28:35.487Z,13.33
2024-01-17T02:31:05.009Z,11.53
2024-01-17T02:33:32.904Z,12.67
2024-01-17T02:36:00.031Z,11.87
2024-01-17T02:38:26.974Z,13.50
2024-01-17T02:40:53.871Z,12.27
2024-01-17T02:43:22.098Z,12.87
2024-01-17T02:45:49.436Z,13.93
2024-01-17T02:48:16.526Z,12.50
2024-01-17T02:50:43.649Z,14.50
2024-01-17T02:53:10.582Z,13.93
2024-01-17T02:55:37.518Z,12.67
2024-01-17T02:58:05.102Z,13.97
2024-01-17T03:00:35.025Z,13.37
2024-01-17T03:03:02.084Z,13.43
2024-01-17T03:05:29.071Z,15.57
2024-01-17T03:07:55.982Z,14.63
2024-01-17T03:10:22.858Z,14.40
2024-01-17T03:12:49.813Z,16.13
2024-01-17T03:15:16.731Z,15.70
2024-01-17T03:17:45.175Z,18.60
2024-01-17T03:20:12.728Z,14.17
2024-01-17T03:22:40.350Z,16.43
2024-01-17T03:25:08.864Z,15.87
2024-01-17T03:27:36.433Z,16.07
2024-01-17T03:30:04.150Z,14.13
2024-01-17T03:32:31.340Z,15.83
2024-01-17T03:35:00.587Z,15.77
2024-01-17T03:37:27.532Z,16.13
2024-01-17T03:39:54.430Z,15.00
2024-01-17T03:42:21.310Z,14.73
2024-01-17T03:44:48.760Z,15.23
2024-01-17T03:47:15.670Z,15.83
2024-01-17T03:49:42.700Z,16.33
2024-01-17T03:52:11.170Z,17.50
2024-01-17T03:54:38.153Z,14.93
2024-01-17T03:57:06.492Z,14.47
2024-01-17T03:59:33.767Z,15.03
2024-01-17T04:02:00.995Z,15.53
2024-01-17T04:04:28.455Z,15.83
2024-01-17T04:06:56.563Z,16.57
2024-01-17T04:09:25.856Z,17.67
2024-01-17T04:11:53.298Z,16.20
2024-01-17T04:14:20.275Z,16.43
2024-01-17T04:16:47.187Z,17.40
2024-01-17T04:19:14.735Z,16.47
2024-01-17T04:21:41.754Z,15.37
2024-01-17T04:24:08.981Z,15.77
2024-01-17T04:26:37.386Z,18.23
2024-01-17T04:29:04.488Z,17.37
2024-01-17T04:31:32.280Z,18.07
2024-01-17T04:34:00.666Z,19.30
2024-01-17T04:36:29.208Z,17.33
2024-01-17T04:38:56.294Z,18.87
2024-01-17T04:41:23.458Z,17.20
2024-01-17T04:43:51.693Z,20.43
2024-01-17T04:46:18.968Z,20.00
2024-01-17T04:48:46.639Z,24.17
2024-01-17T04:51:14.821Z,21.33
2024-01-17T04:53:43.192Z,22.37
2024-01-17T04:56:10.744Z,19.60
2024-01-17T04:58:37.780Z,20.83
2024-01-17T05:01:12.550Z,15.97
2024-01-17T05:03:43.819Z,19.90
2024-01-17T05:06:10.998Z,17.63
2024-01-17T05:08:38.044Z,19.70
2024-01-17T05:11:05.166Z,19.37
2024-01-17T05:13:32.094Z,14.83
2024-01-17T05:15:59.372Z,23.00
2024-01-17T05:18:27.897Z,20.20
2024-01-17T05:20:54.970Z,18.57
2024-01-17T05:23:21.930Z,18.37
2024-01-17T05:25:49.343Z,20.10
2024-01-17T05:28:16.257Z,19.73
2024-01-17T05:30:43.273Z,18.40
2024-01-17T05:33:10.779Z,19.93
2024-01-17T05:35:39.328Z,18.63
2024-01-17T05:38:06.341Z,20.03
2024-01-17T05:40:33.331Z,22.67
2024-01-17T05:43:02.239Z,18.63
2024-01-17T05:45:36.688Z,22.13
2024-01-17T05:48:03.976Z,18.47
2024-01-17T05:50:31.769Z,18.90
2024-01-17T05:53:00.402Z,18.60
2024-01-17T05:55:28.231Z,19.00
2024-01-17T05:57:55.439Z,21.53
2024-01-17T06:00:22.796Z,26.50
2024-01-17T06:02:50.332Z,17.60
2024-01-17T06:05:17.530Z,21.43
2024-01-17T06:07:45.632Z,19.97
2024-01-17T06:10:15.182Z,18.33
2024-01-17T06:12:42.833Z,18.33
2024-01-17T06:15:11.629Z,17.83
2024-01-17T06:17:38.868Z,18.90
2024-01-17T06:20:06.938Z,22.23
2024-01-17T06:22:33.940Z,21.77
2024-01-17T06:25:00.864Z,26.40
2024-01-17T06:27:29.157Z,29.30
2024-01-17T06:29:56.113Z,22.20
2024-01-17T06:32:23.040Z,37.10
2024-01-17T06:34:50.049Z,23.43
2024-01-17T06:37:17.065Z,24.27
2024-01-17T06:39:45.116Z,28.30
2024-01-17T06:42:12.322Z,29.07
2024-01-17T06:44:41.711Z,29.57
2024-01-17T06:47:08.633Z,28.73
2024-01-17T06:49:37.082Z,33.40
2024-01-17T06:52:04.481Z,41.13
2024-01-17T06:54:32.421Z,41.43
2024-01-17T06:56:59.346Z,31.10
2024-01-17T06:59:26.253Z,24.67
2024-01-17T07:01:55.685Z,27.40
2024-01-17T07:04:22.615Z,22.73
2024-01-17T07:06:49.963Z,24.10
2024-01-17T07:09:17.032Z,22.50
2024-01-17T07:11:44.050Z,24.03
2024-01-17T07:14:11.056Z,20.00
2024-01-17T07:16:38.102Z,21.93
2024-01-17T07:19:06.328Z,26.10
2024-01-17T07:21:33.207Z,22.00
2024-01-17T07:24:00.152Z,29.80
2024-01-17T07:26:27.070Z,28.03
2024-01-17T07:28:53.952Z,24.97
2024-01-17T07:31:21.148Z,26.37
2024-01-17T07:33:48.174Z,28.17
2024-01-17T07:36:16.574Z,24.10
2024-01-17T07:38:43.600Z,23.97
2024-01-17T07:41:10.575Z,29.23
2024-01-17T07:43:37.471Z,26.23
2024-01-17T07:46:05.091Z,22.70
2024-01-17T07:48:32.188Z,22.33
2024-01-17T07:50:59.242Z,21.10
2024-01-17T07:53:28.574Z,21.93
2024-01-17T07:55:56.881Z,20.00
2024-01-17T07:58:23.978Z,18.90
2024-01-17T08:00:50.997Z,20.60
2024-01-17T08:03:18.278Z,21.23
2024-01-17T08:05:45.474Z,18.97
2024-01-17T08:08:12.430Z,18.47
2024-01-17T08:10:40.783Z,17.27
2024-01-17T08:13:07.658Z,17.30
2024-01-17T08:15:34.642Z,18.03
2024-01-17T08:18:02.539Z,17.13
2024-01-17T08:20:29.890Z,19.63
2024-01-17T08:22:56.883Z,21.87
2024-01-17T08:25:23.813Z,18.07
2024-01-17T08:27:52.022Z,20.63
2024-01-17T08:30:19.309Z,15.40
2024-01-17T08:32:46.344Z,17.53
2024-01-17T08:35:14.007Z,16.37
2024-01-17T08:37:41.515Z,15.83
2024-01-17T08:40:09.314Z,15.07
2024-01-17T08:42:36.237Z,18.27
2024-01-17T08:45:07.084Z,17.27
2024-01-17T08:47:34.180Z,19.30
2024-01-17T08:50:01.713Z,17.00
2024-01-17T08:52:28.736Z,17.97
2024-01-17T08:54:55.750Z,19.23
2024-01-17T08:57:22.719Z,17.53
2024-01-17T08:59:49.630Z,18.10
2024-01-17T09:02:18.097Z,15.50
2024-01-17T09:04:44.995Z,17.00
2024-01-17T09:07:11.950Z,13.77
2024-01-17T09:09:38.949Z,13.73
2024-01-17T09:12:06.343Z,12.50
2024-01-17T09:14:33.469Z,11.63
2024-01-17T09:17:00.463Z,13.93
2024-01-17T09:19:31.025Z,11.93
2024-01-17T09:22:00.200Z,11.27
2024-01-17T09:24:28.001Z,12.83
2024-01-17T09:26:55.333Z,10.63
2024-01-17T09:29:22.311Z,8.97
2024-01-17T09:31:49.662Z,10.77
2024-01-17T09:34:17.721Z,10.17
2024-01-17T09:36:47.200Z,8.83
2024-01-17T09:39:14.942Z,17.83
2024-01-17T09:41:42.835Z,25.03
2024-01-17T09:44:10.025Z,267.27
2024-01-17T09:46:44.059Z,116.50
2024-01-17T09:49:11.125Z,57.27
2024-01-17T09:51:38.714Z,35.03
2024-01-17T09:54:07.823Z,22.40
2024-01-17T09:56:36.225Z,14.70
2024-01-17T09:59:09.491Z,42.10
2024-01-17T10:01:37.331Z,46.33
2024-01-17T10:04:05.837Z,19.23
2024-01-17T10:06:33.851Z,16.97
2024-01-17T10:09:04.092Z,21.67
2024-01-17T10:11:57.528Z,19.30
2024-01-17T10:14:25.299Z,18.07
2024-01-17T10:16:52.441Z,18.60
2024-01-17T10:19:20.134Z,15.50
2024-01-17T10:21:47.553Z,16.67
2024-01-17T10:24:15.991Z,18.67
2024-01-17T10:26:43.424Z,16.90
2024-01-17T10:29:12.762Z,17.53
2024-01-17T10:31:40.531Z,17.97
2024-01-17T10:34:09.115Z,18.40
2024-01-17T10:36:39.960Z,21.37
2024-01-17T10:39:07.543Z,18.20
2024-01-17T10:41:34.538Z,16.20
2024-01-17T10:44:03.617Z,16.90
2024-01-17T10:46:34.218Z,19.00
2024-01-17T10:49:01.627Z,18.87
2024-01-17T10:51:34.983Z,20.00
2024-01-17T10:54:02.849Z,19.00
2024-01-17T10:56:31.900Z,19.80
2024-01-17T10:59:00.617Z,19.43
2024-01-17T11:01:36.272Z,21.47
2024-01-17T11:04:11.962Z,17.10
2024-01-17T11:06:39.672Z,18.10
2024-01-17T11:09:08.231Z,20.00
2024-01-17T11:11:36.331Z,22.50
2024-01-17T11:14:05.023Z,23.20
2024-01-17T11:16:34.319Z,26.27
2024-01-17T11:19:02.162Z,23.73
2024-01-17T11:21:32.069Z,21.63
2024-01-17T11:24:04.955Z,23.03
2024-01-17T11:26:36.614Z,19.23
2024-01-17T11:29:09.610Z,12.90
2024-01-17T11:31:47.992Z,12.97
2024-01-17T11:34:15.829Z,15.23
2024-01-17T11:36:45.311Z,12.27
2024-01-17T11:39:13.289Z,12.03
2024-01-17T11:41:41.792Z,12.73
2024-01-17T11:44:10.791Z,12.87
2024-01-17T11:46:39.582Z,7.73
2024-01-17T11:49:09.354Z,5.63
2024-01-17T11:51:38.951Z,5.53
2024-01-17T11:54:06.807Z,6.00
2024-01-17T11:56:34.770Z,5.10
2024-01-17T11:59:10.316Z,5.93
2024-01-17T12:01:49.984Z,5.40
2024-01-17T12:04:18.661Z,5.63
2024-01-17T12:06:49.658Z,4.77
2024-01-17T12:09:22.075Z,4.70
2024-01-17T12:11:51.417Z,4.97
2024-01-17T12:14:18.937Z,4.43
2024-01-17T12:16:50.936Z,5.10
2024-01-17T12:19:19.718Z,4.97
2024-01-17T12:21:48.521Z,3.83
2024-01-17T12:24:16.465Z,5.27
2024-01-17T12:26:44.532Z,8.47
2024-01-17T12:29:15.321Z,9.70
2024-01-17T12:31:42.521Z,5.67
2024-01-17T12:34:11.930Z,5.93
2024-01-17T12:36:40.960Z,5.47
2024-01-17T12:39:10.014Z,3.33
2024-01-17T12:41:37.814Z,4.20
2024-01-17T12:44:06.549Z,4.10
2024-01-17T12:46:34.348Z,4.20
2024-01-17T12:49:02.974Z,3.37
2024-01-17T12:51:31.237Z,4.03
2024-01-17T12:53:59.611Z,2.97
2024-01-17T12:56:27.589Z,3.53
2024-01-17T12:58:54.661Z,4.07
2024-01-17T13:01:26.198Z,3.87
2024-01-17T13:04:04.350Z,3.93
2024-01-17T13:06:31.409Z,4.13
2024-01-17T13:09:16.983Z,3.20
2024-01-17T13:11:47.755Z,4.03
2024-01-17T13:14:17.178Z,3.60
2024-01-17T13:16:44.220Z,3.43
2024-01-17T13:19:14.111Z,3.03
2024-01-17T13:21:42.387Z,2.80
2024-01-17T13:24:09.906Z,4.60
2024-01-17T13:26:38.924Z,4.43
2024-01-17T13:29:06.601Z,3.73
2024-01-17T13:31:34.245Z,3.37
2024-01-17T13:34:04.653Z,4.20
2024-01-17T13:36:32.076Z,3.73
2024-01-17T13:38:59.267Z,3.23
2024-01-17T13:41:27.658Z,2.37
2024-01-17T13:43:57.049Z,3.63
2024-01-17T13:46:25.144Z,3.23
2024-01-17T13:48:52.785Z,2.97
2024-01-17T13:51:20.259Z,2.70
2024-01-17T13:53:54.335Z,4.90
2024-01-17T13:56:21.584Z,2.93
2024-01-17T13:58:48.538Z,3.50
2024-01-17T14:01:20.162Z,3.33
2024-01-17T14:03:48.068Z,3.77
2024-01-17T14:06:15.879Z,2.93
2024-01-17T14:08:43.198Z,3.83
2024-01-17T14:11:14.315Z,3.33
2024-01-17T14:13:42.937Z,3.83
2024-01-17T14:16:09.852Z,4.70
2024-01-17T14:18:38.297Z,4.03
2024-01-17T14:21:06.444Z,4.23
2024-01-17T14:23:33.426Z,4.53
2024-01-17T14:26:00.469Z,5.70
2024-01-17T14:28:27.349Z,4.47
2024-01-17T14:30:54.255Z,5.30
2024-01-17T14:33:21.757Z,4.27
2024-01-17T14:35:51.163Z,4.57
2024-01-17T14:38:21.331Z,4.47
2024-01-17T14:40:49.296Z,4.30
2024-01-17T14:43:16.439Z,3.47
2024-01-17T14:45:44.053Z,4.87
2024-01-17T14:48:11.117Z,4.40
2024-01-17T14:50:38.195Z,4.07
2024-01-17T14:53:08.558Z,4.93
2024-01-17T14:55:37.456Z,5.43
2024-01-17T14:58:05.411Z,4.80
2024-01-17T15:00:32.387Z,3.97
2024-01-17T15:02:59.389Z,5.83
2024-01-17T15:05:27.124Z,4.97
2024-01-17T15:07:54.685Z,7.50
2024-01-17T15:10:25.835Z,4.60
2024-01-17T15:12:52.740Z,4.83
2024-01-17T15:15:19.762Z,3.17
2024-01-17T15:17:47.084Z,3.37
2024-01-17T15:20:14.244Z,4.67
2024-01-17T15:22:42.326Z,4.97
2024-01-17T15:25:10.975Z,6.13
2024-01-17T15:27:39.628Z,4.67
2024-01-17T15:30:09.695Z,4.47
2024-01-17T15:32:39.605Z,5.43
2024-01-17T15:35:07.705Z,4.03
2024-01-17T15:37:34.660Z,3.87
2024-01-17T15:40:01.634Z,4.80
2024-01-17T15:42:28.597Z,8.90
2024-01-17T15:44:59.468Z,5.57
2024-01-17T15:47:26.441Z,4.40
2024-01-17T15:49:53.379Z,4.00
2024-01-17T15:52:21.015Z,7.07
2024-01-17T15:54:47.953Z,4.17
2024-01-17T15:57:14.881Z,5.13
2024-01-17T15:59:41.833Z,4.23
2024-01-17T16:02:10.777Z,3.97
2024-01-17T16:04:37.759Z,3.73
2024-01-17T16:07:05.018Z,4.07
2024-01-17T16:09:32.161Z,4.70
2024-01-17T16:11:59.271Z,5.80
2024-01-17T16:14:26.218Z,5.63
2024-01-17T16:16:53.140Z,4.83
2024-01-17T16:19:21.525Z,4.50
2024-01-17T16:21:53.349Z,7.47
2024-01-17T16:24:20.339Z,4.93
2024-01-17T16:26:47.301Z,5.30
2024-01-17T16:29:14.216Z,4.10
2024-01-17T16:31:45.003Z,3.70
2024-01-17T16:34:13.419Z,4.37
2024-01-17T16:36:41.864Z,6.57
2024-01-17T16:39:09.886Z,7.87
2024-01-17T16:41:36.890Z,7.27
2024-01-17T16:44:06.109Z,7.53
2024-01-17T16:46:34.584Z,5.10
2024-01-17T16:49:01.625Z,4.03
2024-01-17T16:51:28.695Z,3.70
2024-01-17T16:53:58.321Z,5.10
2024-01-17T16:56:26.512Z,3.87
2024-01-17T16:58:53.867Z,4.80
2024-01-17T17:01:20.835Z,4.73
2024-01-17T17:03:48.105Z,3.83
2024-01-17T17:06:15.049Z,5.83
2024-01-17T17:08:42.105Z,5.43
2024-01-17T17:11:10.329Z,5.43
2024-01-17T17:13:38.759Z,4.83
2024-01-17T17:16:06.267Z,5.97
2024-01-17T17:18:33.463Z,6.90
2024-01-17T17:21:00.923Z,7.23
2024-01-17T17:23:28.192Z,7.30
2024-01-17T17:25:57.259Z,9.23
2024-01-17T17:28:26.032Z,9.20
2024-01-17T17:30:52.962Z,7.27
2024-01-17T17:33:20.015Z,7.00
2024-01-17T17:35:47.063Z,6.17
2024-01-17T17:38:14.036Z,4.93
2024-01-17T17:40:44.320Z,7.30
2024-01-17T17:43:12.646Z,6.10
2024-01-17T17:45:41.017Z,6.47
2024-01-17T17:48:09.545Z,8.90
2024-01-17T17:50:36.586Z,9.37
2024-01-17T17:53:04.428Z,7.60
2024-01-17T17:55:31.445Z,14.07
2024-01-17T17:57:59.047Z,14.37
2024-01-17T18:00:26.103Z,10.47
2024-01-17T18:02:56.080Z,7.33
2024-01-17T18:05:23.138Z,7.53
2024-01-17T18:07:51.518Z,5.57
2024-01-17T18:10:21.585Z,5.30
2024-01-17T18:12:48.496Z,4.97
2024-01-17T18:15:16.573Z,4.97
2024-01-17T18:17:43.576Z,5.17
2024-01-17T18:20:12.248Z,5.20
2024-01-17T18:22:39.134Z,5.00
2024-01-17T18:25:06.791Z,4.80
2024-01-17T18:27:33.740Z,8.37
2024-01-17T18:30:00.750Z,8.13
2024-01-17T18:32:27.881Z,5.40
2024-01-17T18:34:54.754Z,6.00
2024-01-17T18:37:23.043Z,4.53
2024-01-17T18:39:49.951Z,2.27
2024-01-17T18:42:16.993Z,3.17
2024-01-17T18:44:44.035Z,4.43
2024-01-17T18:47:12.024Z,4.07
2024-01-17T18:49:38.965Z,4.07
2024-01-17T18:52:05.995Z,3.40
2024-01-17T18:54:34.386Z,2.93
2024-01-17T18:57:02.067Z,3.00
2024-01-17T18:59:28.987Z,4.57
2024-01-17T19:01:56.276Z,2.63
2024-01-17T19:04:23.237Z,3.03
2024-01-17T19:06:50.288Z,2.67
2024-01-17T19:09:20.023Z,2.93
2024-01-17T19:11:48.518Z,3.00
2024-01-17T19:14:17.871Z,3.37
2024-01-17T19:16:44.817Z,2.70
2024-01-17T19:19:11.828Z,3.40
2024-01-17T19:21:38.733Z,2.93
2024-01-17T19:24:06.424Z,4.00
2024-01-17T19:26:33.398Z,2.40
2024-01-17T19:29:01.701Z,3.07
2024-01-17T19:31:28.581Z,2.87
2024-01-17T19:33:55.627Z,2.57
2024-01-17T19:36:22.754Z,2.40
2024-01-17T19:38:50.241Z,2.47
2024-01-17T19:41:17.200Z,2.90
2024-01-17T19:43:44.057Z,3.13
2024-01-17T19:46:14.610Z,3.00
2024-01-17T19:48:44.739Z,2.93
2024-01-17T19:51:11.812Z,3.17
2024-01-17T19:53:38.717Z,2.60
2024-01-17T19:56:06.256Z,1.97
2024-01-17T19:58:33.274Z,2.93
2024-01-17T20:01:00.254Z,2.27
2024-01-17T20:03:29.297Z,1.63
2024-01-17T20:05:56.404Z,3.00
2024-01-17T20:08:23.838Z,1.87
2024-01-17T20:10:50.726Z,2.00
2024-01-17T20:13:17.801Z,1.63
2024-01-17T20:15:45.449Z,1.63
2024-01-17T20:18:12.420Z,1.60
2024-01-17T20:20:40.923Z,1.70
2024-01-17T20:23:09.196Z,2.30
2024-01-17T20:25:36.512Z,2.17
2024-01-17T20:28:03.791Z,1.10
2024-01-17T20:30:30.832Z,1.80
2024-01-17T20:32:58.603Z,1.27
2024-01-17T20:35:25.595Z,2.17
2024-01-17T20:37:53.861Z,2.30
2024-01-17T20:40:20.717Z,2.80
2024-01-17T20:42:47.576Z,1.57
2024-01-17T20:45:17.276Z,2.07
2024-01-17T20:47:45.398Z,2.47
2024-01-17T20:50:17.030Z,1.83
2024-01-17T20:52:44.069Z,1.60
2024-01-17T20:55:14.056Z,2.70
2024-01-17T20:57:41.103Z,2.53
2024-01-17T21:00:12.813Z,1.90
2024-01-17T21:02:39.725Z,2.97
2024-01-17T21:05:08.053Z,1.10
2024-01-17T21:07:35.003Z,1.00
2024-01-17T21:10:02.106Z,1.73
2024-01-17T21:12:30.437Z,1.53
2024-01-17T21:14:57.492Z,1.60
2024-01-17T21:17:26.553Z,1.03
2024-01-17T21:19:53.700Z,1.80
2024-01-17T21:22:20.669Z,1.20
2024-01-17T21:24:47.554Z,1.13
2024-01-17T21:27:14.417Z,1.00
2024-01-17T21:29:42.672Z,1.30
2024-01-17T21:32:09.561Z,0.80
2024-01-17T21:34:41.374Z,0.73
2024-01-17T21:37:09.391Z,1.07
2024-01-17T21:39:36.405Z,1.13
2024-01-17T21:42:03.692Z,4.83
2024-01-17T21:44:32.084Z,5.20
2024-01-17T21:47:00.454Z,3.77
2024-01-17T21:49:27.846Z,2.07
2024-01-17T21:51:54.815Z,1.10
2024-01-17T21:54:21.945Z,2.00
2024-01-17T21:56:49.169Z,1.37
2024-01-17T21:59:16.931Z,1.00
2024-01-17T22:01:43.999Z,1.73
2024-01-17T22:04:12.308Z,1.47
2024-01-17T22:06:39.351Z,2.87
2024-01-17T22:09:06.587Z,0.80
2024-01-17T22:11:33.734Z,0.60
2024-01-17T22:14:00.662Z,0.90
2024-01-17T22:16:27.559Z,1.00
2024-01-17T22:18:54.586Z,0.87
2024-01-17T22:21:22.992Z,1.43
2024-01-17T22:23:50.642Z,1.03
2024-01-17T22:26:18.297Z,0.80
2024-01-17T22:28:45.234Z,0.77
2024-01-17T22:31:13.973Z,1.00
2024-01-17T22:33:41.038Z,0.73
2024-01-17T22:36:08.591Z,0.80
2024-01-17T22:38:36.916Z,1.40
2024-01-17T22:41:04.133Z,1.17
2024-01-17T22:43:31.047Z,1.10
2024-01-17T22:45:57.955Z,1.07
2024-01-17T22:48:24.894Z,0.87
2024-01-17T22:50:51.822Z,0.87
2024-01-17T22:53:19.698Z,0.60
2024-01-17T22:55:47.896Z,0.73
2024-01-17T22:58:14.820Z,0.83
2024-01-17T23:00:41.964Z,0.80
2024-01-17T23:03:09.110Z,0.60
2024-01-17T23:05:36.522Z,0.77
2024-01-17T23:08:10.774Z,0.50
2024-01-17T23:10:38.566Z,1.13
2024-01-17T23:13:06.770Z,1.43
2024-01-17T23:15:33.935Z,0.70
2024-01-17T23:18:01.097Z,2.00
2024-01-17T23:20:28.235Z,0.60
2024-01-17T23:22:55.192Z,0.67
2024-01-17T23:25:22.121Z,0.90
2024-01-17T23:27:48.992Z,0.63
2024-01-17T23:30:17.904Z,0.80
2024-01-17T23:32:44.776Z,0.83
2024-01-17T23:35:11.692Z,1.20
2024-01-17T23:37:38.583Z,1.33
2024-01-17T23:40:07.018Z,0.77
2024-01-17T23:42:38.028Z,2.30
2024-01-17T23:45:06.131Z,0.73
2024-01-17T23:47:34.449Z,0.67
2024-01-17T23:50:01.687Z,1.17
2024-01-17T23:52:28.676Z,0.80
2024-01-17T23:54:55.835Z,0.67
2024-01-17T23:57:22.811Z,0.80
2024-01-17T23:59:49.688Z,0.77
